createdAt,value
2022-12-12T00:01:14.720Z,28.43
2022-12-12T00:03:48.841Z,30.67
2022-12-12T00:06:22.650Z,28.37
2022-12-12T00:08:51.178Z,28.13
2022-12-12T00:11:19.683Z,28.47
2022-12-12T00:13:54.968Z,28.80
2022-12-12T00:16:23.818Z,27.90
2022-12-12T00:18:58.114Z,27.77
2022-12-12T00:21:34.736Z,27.70
2022-12-12T00:24:06.001Z,28.07
2022-12-12T00:26:39.944Z,27.63
2022-12-12T00:29:10.656Z,29.30
2022-12-12T00:31:39.180Z,29.70
2022-12-12T00:34:07.405Z,30.03
2022-12-12T00:36:36.994Z,28.93
2022-12-12T00:39:05.520Z,28.37
2022-12-12T00:41:38.026Z,28.67
2022-12-12T00:44:08.130Z,27.87
2022-12-12T00:46:36.387Z,28.80
2022-12-12T00:49:05.098Z,29.03
2022-12-12T00:51:36.860Z,29.53
2022-12-12T00:54:06.681Z,28.33
2022-12-12T00:56:34.926Z,27.17
2022-12-12T00:59:03.743Z,28.53
2022-12-12T01:01:35.810Z,27.87
2022-12-12T01:04:10.793Z,28.53
2022-12-12T01:06:39.097Z,29.20
2022-12-12T01:09:08.766Z,27.70
2022-12-12T01:11:44.315Z,27.63
2022-12-12T01:14:14.910Z,28.00
2022-12-12T01:16:45.907Z,28.13
2022-12-12T01:19:14.136Z,28.23
2022-12-12T01:21:46.948Z,29.60
2022-12-12T01:24:17.911Z,27.87
2022-12-12T01:26:50.727Z,27.60
2022-12-12T01:29:28.045Z,28.53
2022-12-12T01:32:07.862Z,29.77
2022-12-12T01:34:52.914Z,28.83
2022-12-12T01:37:23.540Z,27.63
2022-12-12T01:39:56.321Z,28.10
2022-12-12T01:42:40.631Z,28.40
2022-12-12T01:45:10.956Z,26.93
2022-12-12T01:47:51.333Z,28.33
2022-12-12T01:50:19.613Z,28.43
2022-12-12T01:52:54.279Z,28.77
2022-12-12T01:55:35.775Z,27.53
2022-12-12T01:58:10.084Z,27.70
2022-12-12T02:00:38.373Z,28.10
2022-12-12T02:03:18.106Z,28.10
2022-12-12T02:05:53.712Z,29.07
2022-12-12T02:08:28.166Z,28.63
2022-12-12T02:10:59.297Z,28.70
2022-12-12T02:13:34.281Z,29.27
2022-12-12T02:16:12.026Z,28.53
2022-12-12T02:18:48.094Z,27.50
2022-12-12T02:21:31.965Z,28.57
2022-12-12T02:24:26.211Z,29.13
2022-12-12T02:27:12.556Z,29.10
2022-12-12T02:30:01.003Z,28.87
2022-12-12T02:32:37.085Z,29.40
2022-12-12T02:35:09.465Z,27.50
2022-12-12T02:37:41.076Z,28.07
2022-12-12T02:40:20.328Z,27.87
2022-12-12T02:42:51.558Z,28.77
2022-12-12T02:45:23.819Z,27.40
2022-12-12T02:47:56.650Z,29.30
2022-12-12T02:50:30.626Z,29.47
2022-12-12T02:53:01.003Z,28.70
2022-12-12T02:55:32.550Z,29.37
2022-12-12T02:58:05.238Z,29.50
2022-12-12T03:00:40.209Z,28.90
2022-12-12T03:03:45.007Z,28.17
2022-12-12T03:06:41.398Z,29.07
2022-12-12T03:09:17.585Z,29.67
2022-12-12T03:11:54.191Z,29.77
2022-12-12T03:14:40.550Z,28.17
2022-12-12T03:17:15.005Z,28.63
2022-12-12T03:19:50.307Z,29.47
2022-12-12T03:22:26.532Z,29.33
2022-12-12T03:24:59.447Z,27.53
2022-12-12T03:27:29.300Z,29.77
2022-12-12T03:29:59.447Z,30.70
2022-12-12T03:32:30.132Z,28.93
2022-12-12T03:35:03.732Z,27.83
2022-12-12T03:37:33.582Z,29.10
2022-12-12T03:40:04.761Z,29.13
2022-12-12T03:42:37.849Z,29.00
2022-12-12T03:47:57.235Z,29.67
2022-12-12T03:50:29.120Z,29.73
2022-12-12T03:52:59.108Z,28.70
2022-12-12T03:55:36.922Z,26.83
2022-12-12T03:58:08.154Z,28.97
2022-12-12T04:00:37.406Z,27.33
2022-12-12T04:03:11.023Z,27.77
2022-12-12T04:06:09.503Z,27.03
2022-12-12T04:08:44.998Z,27.67
2022-12-12T04:11:39.198Z,27.03
2022-12-12T04:14:16.142Z,27.07
2022-12-12T04:16:46.763Z,26.50
2022-12-12T04:19:37.020Z,26.50
2022-12-12T04:22:27.421Z,26.27
2022-12-12T04:25:00.849Z,26.20
2022-12-12T04:27:30.597Z,27.23
2022-12-12T04:30:05.634Z,28.43
2022-12-12T04:32:51.447Z,26.50
2022-12-12T04:35:29.074Z,27.37
2022-12-12T04:38:10.670Z,26.37
2022-12-12T04:40:40.255Z,28.07
2022-12-12T04:43:12.142Z,27.47
2022-12-12T04:45:42.886Z,27.47
2022-12-12T04:48:17.391Z,28.30
2022-12-12T04:50:49.643Z,28.23
2022-12-12T04:53:28.311Z,27.37
2022-12-12T04:55:58.105Z,28.00
2022-12-12T04:58:29.884Z,29.97
2022-12-12T05:01:03.059Z,29.13
2022-12-12T05:03:35.995Z,29.47
2022-12-12T05:06:09.975Z,28.73
2022-12-12T05:08:41.483Z,28.43
2022-12-12T05:11:09.996Z,28.47
2022-12-12T05:13:40.732Z,29.77
2022-12-12T05:16:16.974Z,29.47
2022-12-12T05:18:47.372Z,27.60
2022-12-12T05:21:18.254Z,29.33
2022-12-12T05:23:52.355Z,29.27
2022-12-12T05:26:30.005Z,28.77
2022-12-12T05:29:03.690Z,28.87
2022-12-12T05:31:40.933Z,28.80
2022-12-12T05:34:10.305Z,28.47
2022-12-12T05:36:38.779Z,28.77
2022-12-12T05:39:12.896Z,29.07
2022-12-12T05:41:41.259Z,30.17
2022-12-12T05:44:11.488Z,28.30
2022-12-12T05:46:41.669Z,29.93
2022-12-12T05:49:09.913Z,28.97
2022-12-12T05:51:39.916Z,28.67
2022-12-12T05:54:12.152Z,29.37
2022-12-12T05:56:42.320Z,30.00
2022-12-12T05:59:16.149Z,29.27
2022-12-12T06:01:56.754Z,28.80
2022-12-12T06:04:26.338Z,29.37
2022-12-12T06:07:20.936Z,29.70
2022-12-12T06:09:56.132Z,28.67
2022-12-12T06:12:24.567Z,30.50
2022-12-12T06:14:55.805Z,30.40
2022-12-12T06:17:28.318Z,29.43
2022-12-12T06:19:59.660Z,30.13
2022-12-12T06:22:27.920Z,30.33
2022-12-12T06:25:02.387Z,28.90
2022-12-12T06:27:37.464Z,30.47
2022-12-12T06:30:06.959Z,31.13
2022-12-12T06:32:35.294Z,30.87
2022-12-12T06:35:03.723Z,29.90
2022-12-12T06:37:32.003Z,29.87
2022-12-12T06:40:01.678Z,30.57
2022-12-12T06:42:33.027Z,29.83
2022-12-12T06:45:03.878Z,30.07
2022-12-12T06:47:42.543Z,29.03
2022-12-12T06:50:15.017Z,31.23
2022-12-12T06:52:49.830Z,28.03
2022-12-12T06:55:19.523Z,30.70
2022-12-12T06:57:47.806Z,29.50
2022-12-12T07:00:18.627Z,30.87
2022-12-12T07:02:51.633Z,30.10
2022-12-12T07:05:31.837Z,28.30
2022-12-12T07:08:07.051Z,28.63
2022-12-12T07:10:42.884Z,29.83
2022-12-12T07:13:13.171Z,29.07
2022-12-12T07:15:45.652Z,30.27
2022-12-12T07:18:15.844Z,29.50
2022-12-12T07:20:49.182Z,30.53
2022-12-12T07:23:17.462Z,29.17
2022-12-12T07:25:48.463Z,29.33
2022-12-12T07:28:27.043Z,29.67
2022-12-12T07:30:57.278Z,30.00
2022-12-12T07:33:33.189Z,28.33
2022-12-12T07:36:11.908Z,30.43
2022-12-12T07:38:41.901Z,29.10
2022-12-12T07:41:17.129Z,29.53
2022-12-12T07:43:49.467Z,28.50
2022-12-12T07:46:18.792Z,29.60
2022-12-12T07:48:47.381Z,31.27
2022-12-12T07:51:18.775Z,30.43
2022-12-12T07:53:50.177Z,31.23
2022-12-12T07:56:26.026Z,29.37
2022-12-12T07:58:58.547Z,31.53
2022-12-12T08:01:29.580Z,28.30
2022-12-12T08:04:04.992Z,29.30
2022-12-12T08:06:33.859Z,29.57
2022-12-12T08:09:10.450Z,31.00
2022-12-12T08:11:46.280Z,30.57
2022-12-12T08:14:16.126Z,31.73
2022-12-12T08:16:44.368Z,28.27
2022-12-12T08:19:19.900Z,31.13
2022-12-12T08:21:49.845Z,28.87
2022-12-12T08:24:18.483Z,36.43
2022-12-12T08:26:48.154Z,29.03
2022-12-12T08:29:16.387Z,30.00
2022-12-12T08:31:44.702Z,29.90
2022-12-12T08:34:12.943Z,28.83
2022-12-12T08:36:41.194Z,28.43
2022-12-12T08:39:10.321Z,29.23
2022-12-12T08:41:40.372Z,29.23
2022-12-12T08:44:10.322Z,32.63
2022-12-12T08:46:38.801Z,29.03
2022-12-12T08:49:07.112Z,29.93
2022-12-12T08:51:35.915Z,28.33
2022-12-12T08:54:04.155Z,29.53
2022-12-12T09:10:29.638Z,29.80
2022-12-12T09:12:57.945Z,29.13
2022-12-12T09:15:26.198Z,27.17
2022-12-12T09:17:54.396Z,29.33
2022-12-12T09:20:22.610Z,30.23
2022-12-12T09:22:50.852Z,30.17
2022-12-12T09:25:19.203Z,30.83
2022-12-12T09:27:48.771Z,29.90
2022-12-12T09:30:17.012Z,32.07
2022-12-12T09:32:45.375Z,32.87
2022-12-12T09:35:13.844Z,29.33
2022-12-12T09:37:42.283Z,30.33
2022-12-12T09:40:13.145Z,30.37
2022-12-12T09:42:45.013Z,28.10
2022-12-12T09:45:15.096Z,28.83
2022-12-12T09:47:44.629Z,27.03
2022-12-12T09:50:16.360Z,30.17
2022-12-12T09:52:44.846Z,27.90
2022-12-12T09:55:24.157Z,29.50
2022-12-12T09:57:54.880Z,28.27
2022-12-12T10:00:24.662Z,27.97
2022-12-12T10:03:04.299Z,28.77
2022-12-12T10:05:36.289Z,27.67
2022-12-12T10:08:07.937Z,28.30
2022-12-12T10:10:37.425Z,28.27
2022-12-12T10:13:06.838Z,28.67
2022-12-12T10:15:38.752Z,28.10
2022-12-12T10:18:08.211Z,29.27
2022-12-12T10:20:40.197Z,28.93
2022-12-12T10:23:12.445Z,28.30
2022-12-12T10:25:42.763Z,28.77
2022-12-12T10:28:12.231Z,27.90
2022-12-12T10:30:48.436Z,28.07
2022-12-12T10:33:21.801Z,27.80
2022-12-12T10:35:53.941Z,28.77
2022-12-12T10:38:28.350Z,29.77
2022-12-12T10:41:00.236Z,26.70
2022-12-12T10:43:30.578Z,27.10
2022-12-12T10:46:14.913Z,28.30
2022-12-12T10:48:43.450Z,26.23
2022-12-12T10:51:13.992Z,28.20
2022-12-12T10:53:42.919Z,27.60
2022-12-12T10:56:12.502Z,26.53
2022-12-12T10:58:41.619Z,27.37
2022-12-12T11:01:14.873Z,28.30
2022-12-12T11:03:43.938Z,27.20
2022-12-12T11:06:14.543Z,26.57
2022-12-12T11:08:53.848Z,28.07
2022-12-12T11:11:23.273Z,27.80
2022-12-12T11:13:53.410Z,27.20
2022-12-12T11:16:23.904Z,28.00
2022-12-12T11:18:59.637Z,27.90
2022-12-12T11:21:29.044Z,27.07
2022-12-12T11:23:58.246Z,26.87
2022-12-12T11:26:28.592Z,28.63
2022-12-12T11:28:59.629Z,26.03
2022-12-12T11:31:30.830Z,28.47
2022-12-12T11:34:00.871Z,29.00
2022-12-12T11:39:16.271Z,27.90
2022-12-12T11:41:58.384Z,26.67
2022-12-12T11:44:26.907Z,26.33
2022-12-12T11:46:56.538Z,27.67
2022-12-12T11:49:24.856Z,27.57
2022-12-12T11:51:53.803Z,25.43
2022-12-12T11:54:24.478Z,25.43
2022-12-12T11:56:54.985Z,25.87
2022-12-12T11:59:38.986Z,29.63
2022-12-12T12:02:21.570Z,25.63
2022-12-12T12:04:53.702Z,26.23
2022-12-12T12:07:38.630Z,25.60
2022-12-12T12:10:11.332Z,25.40
2022-12-12T12:12:46.074Z,26.37
2022-12-12T12:15:31.860Z,26.63
2022-12-12T12:18:08.518Z,25.20
2022-12-12T12:20:45.115Z,26.60
2022-12-12T12:23:18.959Z,27.37
2022-12-12T12:25:53.333Z,26.37
2022-12-12T12:28:33.397Z,25.73
2022-12-12T12:31:03.741Z,25.40
2022-12-12T12:33:41.796Z,26.00
2022-12-12T12:36:20.899Z,25.17
2022-12-12T12:39:02.003Z,26.17
2022-12-12T12:41:41.847Z,27.23
2022-12-12T12:44:15.578Z,26.40
2022-12-12T12:46:48.780Z,27.07
2022-12-12T12:49:22.693Z,28.37
2022-12-12T12:51:53.695Z,28.90
2022-12-12T12:54:25.230Z,27.83
2022-12-12T12:56:57.839Z,28.30
2022-12-12T12:59:27.589Z,26.60
2022-12-12T13:01:56.579Z,29.03
2022-12-12T13:04:28.287Z,29.00
2022-12-12T13:07:04.531Z,30.07
2022-12-12T13:09:38.550Z,30.63
2022-12-12T13:12:11.357Z,31.10
2022-12-12T13:14:42.114Z,29.50
2022-12-12T13:17:16.067Z,29.37
2022-12-12T13:19:47.448Z,30.30
2022-12-12T13:22:16.570Z,30.10
2022-12-12T13:24:53.546Z,28.87
2022-12-12T13:27:27.032Z,29.97
2022-12-12T13:29:56.958Z,29.33
2022-12-12T13:32:40.045Z,30.10
2022-12-12T13:35:12.787Z,29.47
2022-12-12T13:37:46.190Z,30.30
2022-12-12T13:40:24.231Z,28.60
2022-12-12T13:42:54.131Z,29.77
2022-12-12T13:45:38.039Z,30.20
2022-12-12T13:48:07.751Z,30.43
2022-12-12T13:50:37.439Z,30.93
2022-12-12T13:53:23.362Z,31.07
2022-12-12T13:56:11.663Z,30.97
2022-12-12T13:58:40.035Z,29.67
2022-12-12T14:01:39.338Z,30.43
2022-12-12T14:04:08.021Z,30.30
2022-12-12T14:06:42.555Z,29.50
2022-12-12T14:09:21.912Z,29.70
2022-12-12T14:11:51.403Z,31.00
2022-12-12T14:14:24.295Z,30.63
2022-12-12T14:16:58.203Z,31.70
2022-12-12T14:19:29.350Z,30.60
2022-12-12T14:21:58.951Z,30.40
2022-12-12T14:24:48.091Z,31.70
2022-12-12T14:27:18.947Z,30.53
2022-12-12T14:29:47.475Z,33.57
2022-12-12T14:32:26.365Z,33.20
2022-12-12T14:35:08.870Z,31.13
2022-12-12T14:37:52.657Z,31.23
2022-12-12T14:40:25.094Z,30.90
2022-12-12T14:43:20.438Z,29.07
2022-12-12T14:45:54.349Z,30.77
2022-12-12T14:48:26.717Z,30.23
2022-12-12T14:51:10.317Z,32.10
2022-12-12T14:53:46.782Z,29.37
2022-12-12T14:56:28.464Z,28.43
2022-12-12T14:58:59.694Z,28.43
2022-12-12T15:01:30.820Z,29.87
2022-12-12T15:03:59.875Z,30.47
2022-12-12T15:06:29.757Z,28.70
2022-12-12T15:09:00.402Z,29.83
2022-12-12T15:11:34.148Z,29.33
2022-12-12T15:14:03.455Z,30.37
2022-12-12T15:16:44.198Z,28.37
2022-12-12T15:19:19.914Z,29.60
2022-12-12T15:21:49.617Z,29.97
2022-12-12T15:24:20.678Z,31.33
2022-12-12T15:26:50.719Z,31.03
2022-12-12T15:29:21.633Z,32.70
2022-12-12T15:31:54.371Z,30.03
2022-12-12T15:34:32.338Z,29.70
2022-12-12T15:37:15.492Z,28.00
2022-12-12T15:39:51.591Z,30.57
2022-12-12T15:42:20.144Z,29.07
2022-12-12T15:44:53.723Z,29.67
2022-12-12T15:47:22.223Z,29.43
2022-12-12T15:49:50.512Z,31.83
2022-12-12T15:52:21.402Z,35.17
2022-12-12T15:54:56.878Z,35.87
2022-12-12T15:57:26.515Z,36.17
2022-12-12T15:59:57.625Z,36.00
2022-12-12T16:02:30.142Z,38.07
2022-12-12T16:05:03.810Z,35.47
2022-12-12T16:07:37.807Z,34.17
2022-12-12T16:10:26.107Z,31.77
2022-12-12T16:13:00.384Z,33.43
2022-12-12T16:15:34.921Z,34.77
2022-12-12T16:18:04.730Z,33.30
2022-12-12T16:20:33.432Z,32.77
2022-12-12T16:23:12.428Z,34.20
2022-12-12T16:25:42.101Z,38.47
2022-12-12T16:28:25.229Z,37.00
2022-12-12T16:30:56.367Z,42.87
2022-12-12T16:33:32.738Z,39.17
2022-12-12T16:36:01.740Z,38.07
2022-12-12T16:38:30.234Z,35.33
2022-12-12T16:41:01.144Z,35.07
2022-12-12T16:43:29.531Z,35.20
2022-12-12T16:45:59.382Z,34.03
2022-12-12T16:48:32.540Z,32.00
2022-12-12T16:51:06.974Z,30.73
2022-12-12T16:53:35.970Z,34.17
2022-12-12T16:56:08.202Z,34.53
2022-12-12T16:58:37.986Z,31.80
2022-12-12T17:01:08.940Z,31.67
2022-12-12T17:03:37.234Z,32.80
2022-12-12T17:06:10.055Z,32.17
2022-12-12T17:08:39.067Z,33.63
2022-12-12T17:11:12.214Z,38.33
2022-12-12T17:13:53.934Z,38.30
2022-12-12T17:16:27.620Z,37.93
2022-12-12T17:18:56.459Z,40.30
2022-12-12T17:21:28.827Z,37.33
2022-12-12T17:24:00.264Z,35.37
2022-12-12T17:26:30.160Z,32.03
2022-12-12T17:29:01.087Z,33.27
2022-12-12T17:34:07.230Z,32.07
2022-12-12T17:36:35.492Z,31.73
2022-12-12T17:39:03.797Z,33.50
2022-12-12T17:42:11.850Z,35.80
2022-12-12T17:45:18.961Z,40.57
2022-12-12T17:47:57.066Z,41.13
2022-12-12T17:50:41.684Z,38.53
2022-12-12T17:53:12.641Z,34.67
2022-12-12T17:55:51.685Z,34.27
2022-12-12T17:58:48.270Z,31.10
2022-12-12T18:01:20.655Z,30.07
2022-12-12T18:03:49.373Z,32.67
2022-12-12T18:06:25.503Z,38.20
2022-12-12T18:09:09.384Z,37.60
2022-12-12T18:11:38.719Z,37.47
2022-12-12T18:14:09.143Z,34.90
2022-12-12T18:16:37.938Z,38.50
2022-12-12T18:19:06.263Z,35.67
2022-12-12T18:21:59.612Z,35.23
2022-12-12T18:24:24.811Z,36.43
2022-12-12T18:26:53.830Z,33.50
2022-12-12T18:29:23.825Z,32.00
2022-12-12T18:31:52.364Z,31.47
2022-12-12T18:34:20.726Z,30.50
2022-12-12T18:36:49.756Z,33.93
2022-12-12T18:39:18.070Z,33.37
2022-12-12T18:41:46.446Z,36.10
2022-12-12T18:44:15.963Z,33.07
2022-12-12T18:46:45.929Z,35.77
2022-12-12T18:49:15.751Z,33.47
2022-12-12T18:51:44.698Z,32.63
2022-12-12T18:54:15.452Z,35.03
2022-12-12T18:56:44.503Z,38.77
2022-12-12T18:59:13.411Z,40.20
2022-12-12T19:01:41.897Z,43.33
2022-12-12T19:04:17.513Z,37.77
2022-12-12T19:06:49.456Z,36.33
2022-12-12T19:09:19.208Z,33.00
2022-12-12T19:11:48.263Z,35.40
2022-12-12T19:14:17.460Z,36.23
2022-12-12T19:16:46.523Z,35.77
2022-12-12T19:19:16.686Z,36.00
2022-12-12T19:21:45.089Z,37.17
2022-12-12T19:24:13.765Z,41.03
2022-12-12T19:26:43.856Z,37.53
2022-12-12T19:29:13.029Z,40.87
2022-12-12T19:31:41.380Z,40.17
2022-12-12T19:34:10.379Z,39.57
2022-12-12T19:36:40.375Z,39.90
2022-12-12T19:39:09.667Z,39.50
2022-12-12T19:41:37.994Z,37.40
2022-12-12T19:44:08.766Z,34.13
2022-12-12T19:46:37.208Z,30.97
2022-12-12T19:49:07.008Z,28.83
2022-12-12T19:51:36.142Z,28.20
2022-12-12T19:54:07.411Z,29.83
2022-12-12T19:56:36.347Z,29.00
2022-12-12T19:59:05.181Z,28.97
2022-12-12T20:01:34.202Z,27.50
2022-12-12T20:04:05.401Z,28.53
2022-12-12T20:06:40.860Z,28.13
2022-12-12T20:09:11.108Z,28.97
2022-12-12T20:11:39.923Z,30.90
2022-12-12T20:14:08.281Z,31.40
2022-12-12T20:16:36.555Z,33.07
2022-12-12T20:19:04.886Z,30.60
2022-12-12T20:24:25.448Z,31.27
2022-12-12T20:26:54.231Z,29.53
2022-12-12T20:29:23.290Z,28.27
2022-12-12T20:31:51.546Z,27.17
2022-12-12T20:34:21.654Z,26.43
2022-12-12T20:36:50.295Z,27.20
2022-12-12T20:39:21.246Z,28.83
2022-12-12T20:41:53.135Z,29.63
2022-12-12T20:44:22.432Z,28.50
2022-12-12T20:46:50.701Z,27.50
2022-12-12T20:49:19.851Z,27.60
2022-12-12T20:51:57.253Z,29.37
2022-12-12T20:54:26.563Z,28.93
2022-12-12T20:56:56.298Z,28.83
2022-12-12T20:59:24.662Z,29.07
2022-12-12T21:01:53.335Z,29.20
2022-12-12T21:04:22.030Z,27.10
2022-12-12T21:06:51.341Z,29.63
2022-12-12T21:09:24.241Z,29.67
2022-12-12T21:12:00.660Z,28.73
2022-12-12T21:14:33.344Z,29.50
2022-12-12T21:17:01.618Z,30.00
2022-12-12T21:19:29.836Z,29.63
2022-12-12T21:21:58.060Z,28.50
2022-12-12T21:24:26.860Z,28.07
2022-12-12T21:26:55.192Z,28.80
2022-12-12T21:29:23.535Z,27.63
2022-12-12T21:31:53.268Z,27.47
2022-12-12T21:34:22.313Z,29.43
2022-12-12T21:36:54.133Z,28.10
2022-12-12T21:39:22.975Z,29.50
2022-12-12T21:41:51.376Z,29.43
2022-12-12T21:44:19.839Z,28.33
2022-12-12T21:46:48.199Z,29.00
2022-12-12T21:49:25.959Z,30.13
2022-12-12T21:51:55.016Z,28.47
2022-12-12T21:54:23.750Z,27.07
2022-12-12T21:56:51.927Z,27.47
2022-12-12T21:59:20.134Z,27.00
2022-12-12T22:01:48.394Z,25.03
2022-12-12T22:04:18.054Z,26.97
2022-12-12T22:06:47.118Z,25.87
2022-12-12T22:09:15.476Z,26.67
2022-12-12T22:11:49.216Z,26.33
2022-12-12T22:14:21.317Z,26.27
2022-12-12T22:16:49.657Z,28.17
2022-12-12T22:19:19.656Z,27.07
2022-12-12T22:21:48.326Z,26.07
2022-12-12T22:24:17.007Z,27.00
2022-12-12T22:26:46.074Z,26.60
2022-12-12T22:29:15.268Z,26.47
2022-12-12T22:31:43.784Z,28.10
2022-12-12T22:34:13.150Z,25.80
2022-12-12T22:36:42.896Z,24.77
2022-12-12T22:39:14.441Z,24.80
2022-12-12T22:41:42.695Z,25.97
2022-12-12T22:44:14.059Z,25.80
2022-12-12T22:46:44.054Z,26.33
2022-12-12T22:49:13.902Z,25.47
2022-12-12T22:51:43.752Z,25.27
2022-12-12T22:54:12.297Z,24.97
2022-12-12T22:56:41.134Z,25.07
2022-12-12T22:59:09.471Z,26.20
2022-12-12T23:01:37.798Z,25.47
2022-12-12T23:04:06.231Z,24.37
2022-12-12T23:06:35.526Z,25.33
2022-12-12T23:09:07.051Z,25.20
2022-12-12T23:11:36.588Z,26.20
2022-12-12T23:14:06.027Z,24.40
2022-12-12T23:16:35.376Z,24.80
2022-12-12T23:19:04.398Z,25.00
2022-12-12T23:21:32.630Z,24.87
2022-12-12T23:24:00.851Z,25.43
2022-12-12T23:26:31.242Z,24.20
2022-12-12T23:28:59.637Z,24.70
2022-12-12T23:31:29.023Z,24.60
2022-12-12T23:33:58.265Z,24.03
2022-12-12T23:36:26.758Z,23.73
2022-12-12T23:38:56.530Z,22.73
2022-12-12T23:41:25.119Z,23.90
2022-12-12T23:43:54.856Z,22.63
2022-12-12T23:46:29.696Z,23.83
2022-12-12T23:48:58.401Z,23.87
2022-12-12T23:51:27.383Z,24.13
2022-12-12T23:53:56.872Z,23.93
2022-12-12T23:56:25.388Z,24.63
2022-12-12T23:58:55.080Z,24.20
